createdAt,value
2023-06-01T00:01:15.349Z,3.60
2023-06-01T00:03:45.942Z,4.10
2023-06-01T00:06:14.328Z,3.20
2023-06-01T00:08:42.587Z,3.40
2023-06-01T00:11:10.969Z,3.40
2023-06-01T00:13:39.318Z,3.30
2023-06-01T00:16:07.770Z,3.10
2023-06-01T00:18:35.980Z,3.20
2023-06-01T00:21:04.144Z,2.80
2023-06-01T00:23:32.996Z,3.10
2023-06-01T00:26:02.068Z,2.80
2023-06-01T00:28:30.262Z,2.90
2023-06-01T00:30:58.552Z,3.30
2023-06-01T00:33:27.506Z,3.20
2023-06-01T00:35:55.983Z,2.60
2023-06-01T00:38:24.255Z,2.80
2023-06-01T00:40:52.453Z,3.40
2023-06-01T00:43:20.811Z,3.10
2023-06-01T00:45:49.494Z,2.60
2023-06-01T00:48:19.152Z,3.10
2023-06-01T00:50:48.110Z,3.40
2023-06-01T00:53:19.116Z,2.70
2023-06-01T00:55:48.285Z,2.60
2023-06-01T00:58:16.804Z,3.00
2023-06-01T01:00:45.249Z,2.90
2023-06-01T01:03:15.319Z,3.00
2023-06-01T01:05:44.195Z,3.20
2023-06-01T01:08:50.262Z,3.50
2023-06-01T01:11:22.932Z,3.50
2023-06-01T01:13:58.799Z,3.00
2023-06-01T01:16:47.672Z,3.10
2023-06-01T01:19:33.566Z,3.80
2023-06-01T01:22:21.683Z,3.50
2023-06-01T01:25:05.413Z,3.50
2023-06-01T01:27:45.903Z,3.60
2023-06-01T01:30:15.086Z,3.30
2023-06-01T01:32:44.099Z,3.30
2023-06-01T01:35:13.312Z,4.70
2023-06-01T01:37:52.834Z,3.50
2023-06-01T01:40:21.664Z,3.40
2023-06-01T01:42:52.477Z,3.50
2023-06-01T01:45:21.634Z,3.50
2023-06-01T01:47:52.724Z,3.60
2023-06-01T01:50:25.659Z,3.30
2023-06-01T01:52:56.087Z,2.90
2023-06-01T01:55:26.006Z,2.80
2023-06-01T01:57:58.263Z,3.20
2023-06-01T02:00:27.385Z,3.30
2023-06-01T02:02:56.142Z,3.10
2023-06-01T02:05:24.648Z,3.20
2023-06-01T02:07:53.005Z,3.10
2023-06-01T02:10:21.487Z,3.10
2023-06-01T02:12:49.827Z,2.90
2023-06-01T02:15:18.245Z,3.60
2023-06-01T02:17:47.212Z,3.30
2023-06-01T02:20:16.232Z,3.20
2023-06-01T02:22:44.604Z,3.00
2023-06-01T02:25:13.330Z,3.40
2023-06-01T02:27:41.566Z,3.40
2023-06-01T02:30:10.880Z,3.30
2023-06-01T02:32:39.127Z,3.40
2023-06-01T02:35:08.343Z,3.60
2023-06-01T02:37:37.185Z,3.00
2023-06-01T02:40:06.431Z,2.80
2023-06-01T02:42:34.811Z,3.30
2023-06-01T02:45:05.368Z,3.50
2023-06-01T02:47:33.687Z,3.20
2023-06-01T02:50:01.861Z,3.80
2023-06-01T02:52:31.190Z,3.30
2023-06-01T02:55:00.810Z,3.30
2023-06-01T02:57:48.120Z,3.20
2023-06-01T03:00:19.794Z,3.00
2023-06-01T03:05:19.496Z,2.80
2023-06-01T03:08:07.661Z,3.40
2023-06-01T03:10:36.124Z,3.50
2023-06-01T03:13:12.804Z,4.10
2023-06-01T03:15:41.193Z,3.80
2023-06-01T03:18:13.108Z,3.80
2023-06-01T03:20:41.512Z,3.40
2023-06-01T03:23:10.024Z,4.20
2023-06-01T03:25:38.421Z,3.50
2023-06-01T03:28:07.057Z,3.40
2023-06-01T03:30:35.194Z,3.80
2023-06-01T03:33:03.622Z,4.10
2023-06-01T03:35:34.554Z,3.90
2023-06-01T03:38:02.925Z,3.60
2023-06-01T03:40:31.611Z,3.20
2023-06-01T03:42:59.996Z,3.40
2023-06-01T03:45:30.274Z,3.90
2023-06-01T03:47:59.226Z,3.90
2023-06-01T03:50:27.487Z,4.00
2023-06-01T03:52:57.134Z,3.70
2023-06-01T03:55:26.492Z,3.70
2023-06-01T03:58:06.177Z,4.00
2023-06-01T04:00:35.437Z,4.00
2023-06-01T04:03:08.500Z,4.30
2023-06-01T04:05:38.129Z,3.80
2023-06-01T04:08:07.126Z,3.60
2023-06-01T04:10:35.701Z,3.40
2023-06-01T04:13:04.085Z,3.90
2023-06-01T04:15:32.459Z,3.60
2023-06-01T04:18:01.845Z,4.50
2023-06-01T04:20:44.472Z,3.80
2023-06-01T04:23:12.864Z,3.10
2023-06-01T04:25:45.359Z,3.50
2023-06-01T04:28:15.343Z,3.60
2023-06-01T04:30:45.562Z,3.20
2023-06-01T04:33:14.255Z,3.50
2023-06-01T04:35:44.815Z,3.70
2023-06-01T04:38:15.303Z,3.20
2023-06-01T04:40:46.443Z,2.70
2023-06-01T04:43:20.264Z,3.50
2023-06-01T04:45:51.018Z,3.10
2023-06-01T04:48:19.785Z,3.10
2023-06-01T04:50:53.181Z,3.10
2023-06-01T04:53:22.263Z,3.00
2023-06-01T04:55:51.470Z,3.10
2023-06-01T04:58:19.837Z,3.00
2023-06-01T05:00:48.325Z,3.20
2023-06-01T05:03:17.468Z,3.20
2023-06-01T05:05:45.896Z,3.30
2023-06-01T05:22:21.501Z,3.30
2023-06-01T05:26:04.229Z,3.60
2023-06-01T05:29:36.598Z,3.10
2023-06-01T05:33:10.255Z,3.30
2023-06-01T05:37:00.099Z,3.20
2023-06-01T05:40:32.169Z,3.40
2023-06-01T05:44:22.904Z,2.90
2023-06-01T05:47:54.938Z,2.80
2023-06-01T05:51:39.558Z,3.40
2023-06-01T05:55:28.789Z,3.90
2023-06-01T05:59:08.671Z,3.40
2023-06-01T06:02:48.434Z,3.90
2023-06-01T06:06:37.869Z,3.60
2023-06-01T06:10:19.885Z,3.40
2023-06-01T06:14:09.171Z,3.60
2023-06-01T06:17:59.252Z,4.40
2023-06-01T06:21:48.668Z,5.20
2023-06-01T06:25:30.942Z,4.30
2023-06-01T06:29:20.182Z,4.00
2023-06-01T06:33:12.229Z,3.70
2023-06-01T06:37:03.921Z,3.20
2023-06-01T06:40:51.996Z,6.40
2023-06-01T06:44:39.926Z,3.20
2023-06-01T06:48:29.664Z,3.00
2023-06-01T06:52:18.958Z,3.70
2023-06-01T06:56:08.232Z,4.30
2023-06-01T06:59:57.370Z,3.90
2023-06-01T07:03:46.703Z,3.90
2023-06-01T07:07:35.922Z,4.00
2023-06-01T07:11:25.245Z,3.40
2023-06-01T07:15:08.028Z,4.40
2023-06-01T07:18:57.213Z,4.30
2023-06-01T07:22:37.880Z,3.80
2023-06-01T07:25:25.960Z,4.80
2023-06-01T07:28:48.016Z,4.10
2023-06-01T07:32:37.509Z,4.40
2023-06-01T07:36:26.834Z,3.70
2023-06-01T07:40:09.879Z,4.20
2023-06-01T07:43:47.875Z,4.10
2023-06-01T07:47:37.154Z,3.80
2023-06-01T07:51:26.467Z,3.50
2023-06-01T07:55:15.688Z,3.80
2023-06-01T07:59:04.980Z,4.30
2023-06-01T08:02:47.451Z,4.10
2023-06-01T08:07:17.287Z,4.10
2023-06-01T08:10:40.872Z,3.80
2023-06-01T08:14:30.004Z,3.70
2023-06-01T08:18:19.313Z,3.80
2023-06-01T08:22:08.874Z,2.80
2023-06-01T08:25:58.210Z,3.40
2023-06-01T08:29:47.557Z,2.50
2023-06-01T08:33:36.732Z,2.20
2023-06-01T08:37:25.933Z,2.50
2023-06-01T08:41:14.334Z,2.40
2023-06-01T08:45:06.693Z,2.50
2023-06-01T08:48:55.535Z,2.80
2023-06-01T08:52:44.711Z,2.50
2023-06-01T08:56:33.937Z,2.30
2023-06-01T09:00:23.289Z,2.80
2023-06-01T09:04:12.562Z,2.20
2023-06-01T09:08:01.808Z,7.20
2023-06-01T09:11:47.107Z,2.50
2023-06-01T09:15:54.598Z,2.10
2023-06-01T09:19:43.791Z,3.10
2023-06-01T09:23:26.040Z,2.30
2023-06-01T09:27:15.398Z,2.50
2023-06-01T09:31:04.961Z,2.30
2023-06-01T09:34:57.101Z,2.30
2023-06-01T09:39:02.028Z,2.50
2023-06-01T09:42:57.426Z,2.20
2023-06-01T09:46:42.179Z,2.90
2023-06-01T09:50:34.545Z,2.80
2023-06-01T09:54:23.897Z,3.00
2023-06-01T09:58:13.106Z,2.10
2023-06-01T10:02:02.586Z,2.70
2023-06-01T10:05:51.980Z,2.10
2023-06-01T10:09:41.153Z,2.60
2023-06-01T10:13:30.604Z,2.80
2023-06-01T10:17:19.460Z,2.70
2023-06-01T10:21:08.936Z,2.90
2023-06-01T10:24:58.145Z,2.40
2023-06-01T10:28:44.113Z,2.30
2023-06-01T10:32:35.085Z,2.70
2023-06-01T10:36:22.693Z,3.00
2023-06-01T10:40:24.398Z,2.10
2023-06-01T10:44:18.523Z,2.90
2023-06-01T10:48:16.858Z,2.60
2023-06-01T10:52:18.213Z,2.60
2023-06-01T10:56:13.471Z,4.90
2023-06-01T11:00:08.752Z,2.70
2023-06-01T11:03:58.158Z,3.00
2023-06-01T11:07:45.922Z,2.90
2023-06-01T11:11:53.551Z,2.30
2023-06-01T11:15:57.267Z,2.50
2023-06-01T11:20:03.998Z,2.50
2023-06-01T11:23:53.190Z,2.20
2023-06-01T11:27:42.311Z,2.50
2023-06-01T11:31:22.804Z,2.60
2023-06-01T11:35:17.935Z,3.30
2023-06-01T11:39:20.808Z,2.30
2023-06-01T11:43:10.816Z,2.20
2023-06-01T11:47:02.836Z,2.70
2023-06-01T11:51:04.199Z,2.00
2023-06-01T11:54:53.861Z,1.90
2023-06-01T11:58:43.236Z,2.90
2023-06-01T12:02:25.745Z,2.60
2023-06-01T12:06:21.665Z,2.60
2023-06-01T12:10:11.414Z,2.70
2023-06-01T12:14:00.797Z,3.40
2023-06-01T12:21:51.115Z,2.80
2023-06-01T12:25:40.276Z,2.50
2023-06-01T12:29:29.784Z,3.10
2023-06-01T12:33:11.662Z,5.90
2023-06-01T12:37:09.765Z,2.50
2023-06-01T12:40:44.617Z,2.40
2023-06-01T12:44:33.892Z,2.60
2023-06-01T12:48:23.138Z,2.80
2023-06-01T12:52:12.382Z,2.60
2023-06-01T12:56:01.621Z,2.90
2023-06-01T12:58:55.132Z,2.80
2023-06-01T13:02:24.274Z,2.90
2023-06-01T13:06:13.688Z,2.40
2023-06-01T13:10:02.960Z,2.90
2023-06-01T13:13:52.126Z,3.70
2023-06-01T13:17:41.617Z,2.70
2023-06-01T13:21:30.928Z,2.30
2023-06-01T13:25:20.121Z,2.30
2023-06-01T13:29:09.448Z,2.50
2023-06-01T13:32:58.669Z,2.60
2023-06-01T13:36:30.641Z,1.90
2023-06-01T13:40:19.910Z,2.10
2023-06-01T13:44:09.446Z,2.50
2023-06-01T13:47:58.926Z,2.60
2023-06-01T13:51:42.078Z,2.20
2023-06-01T13:55:31.481Z,2.80
2023-06-01T13:59:20.654Z,2.70
2023-06-01T14:03:10.116Z,2.60
2023-06-01T14:06:59.609Z,2.20
2023-06-01T14:10:48.677Z,1.90
2023-06-01T14:14:37.869Z,2.50
2023-06-01T14:18:27.269Z,2.50
2023-06-01T14:22:16.692Z,2.10
2023-06-01T14:25:58.908Z,2.40
2023-06-01T14:29:48.152Z,2.20
2023-06-01T14:33:37.579Z,2.20
2023-06-01T14:37:19.665Z,1.90
2023-06-01T14:41:09.168Z,2.40
2023-06-01T14:45:06.154Z,2.20
2023-06-01T14:48:57.471Z,2.10
2023-06-01T14:52:46.848Z,2.20
2023-06-01T14:56:36.137Z,2.30
2023-06-01T15:00:25.392Z,2.30
2023-06-01T15:04:15.124Z,2.20
2023-06-01T15:08:04.416Z,2.20
2023-06-01T15:11:53.678Z,2.30
2023-06-01T15:15:41.768Z,2.30
2023-06-01T15:19:31.063Z,2.00
2023-06-01T15:23:20.268Z,2.40
2023-06-01T15:27:03.076Z,2.30
2023-06-01T15:30:52.382Z,2.30
2023-06-01T15:34:41.691Z,2.20
2023-06-01T15:38:31.038Z,2.70
2023-06-01T15:42:11.620Z,2.10
2023-06-01T15:46:00.893Z,1.80
2023-06-01T15:49:50.879Z,2.70
2023-06-01T15:53:40.220Z,2.90
2023-06-01T15:57:29.664Z,2.50
2023-06-01T16:01:29.480Z,2.20
2023-06-01T16:05:19.578Z,2.40
2023-06-01T16:09:08.765Z,2.40
2023-06-01T16:12:57.382Z,2.40
2023-06-01T16:16:29.830Z,2.20
2023-06-01T16:20:08.990Z,2.80
2023-06-01T16:23:58.483Z,2.50
2023-06-01T16:27:47.888Z,1.90
2023-06-01T16:31:37.224Z,2.40
2023-06-01T16:35:26.513Z,2.60
2023-06-01T16:39:09.561Z,2.00
2023-06-01T16:42:58.797Z,2.40
2023-06-01T16:46:48.087Z,2.40
2023-06-01T16:50:32.025Z,2.60
2023-06-01T16:54:21.326Z,2.70
2023-06-01T16:58:10.610Z,2.00
2023-06-01T17:02:00.012Z,2.40
2023-06-01T17:05:49.524Z,3.40
2023-06-01T17:09:38.734Z,3.00
2023-06-01T17:13:27.897Z,3.20
2023-06-01T17:17:08.306Z,3.00
2023-06-01T17:20:58.712Z,3.30
2023-06-01T17:24:41.281Z,3.60
2023-06-01T17:28:25.491Z,4.20
2023-06-01T17:32:14.765Z,3.50
2023-06-01T17:36:02.779Z,4.30
2023-06-01T17:39:52.162Z,4.60
2023-06-01T17:43:41.851Z,3.60
2023-06-01T17:47:51.796Z,3.00
2023-06-01T17:51:41.053Z,3.00
2023-06-01T17:55:30.236Z,3.20
2023-06-01T17:59:19.616Z,3.20
2023-06-01T18:03:08.902Z,3.40
2023-06-01T18:06:58.700Z,3.70
2023-06-01T18:10:48.044Z,4.90
2023-06-01T18:14:37.355Z,4.70
2023-06-01T18:18:26.663Z,5.20
2023-06-01T18:22:16.645Z,3.90
2023-06-01T18:26:05.113Z,4.50
2023-06-01T18:29:54.398Z,4.90
2023-06-01T18:33:43.770Z,4.70
2023-06-01T18:37:33.131Z,4.80
2023-06-01T18:41:15.773Z,5.20
2023-06-01T18:45:04.944Z,4.50
2023-06-01T18:48:54.145Z,5.20
2023-06-01T18:52:43.430Z,5.10
2023-06-01T18:56:32.993Z,4.20
2023-06-01T19:00:16.400Z,3.90
2023-06-01T19:03:59.345Z,4.70
2023-06-01T19:07:43.216Z,4.30
2023-06-01T19:11:34.065Z,4.00
2023-06-01T19:15:23.505Z,4.00
2023-06-01T19:19:12.672Z,4.10
2023-06-01T19:23:01.866Z,3.80
2023-06-01T19:26:41.180Z,3.60
2023-06-01T19:30:24.278Z,3.70
2023-06-01T19:34:07.408Z,3.60
2023-06-01T19:37:49.574Z,3.90
2023-06-01T19:41:38.895Z,3.80
2023-06-01T19:45:28.123Z,4.80
2023-06-01T19:49:10.566Z,4.00
2023-06-01T19:52:59.906Z,4.10
2023-06-01T19:56:22.096Z,4.00
2023-06-01T19:59:42.132Z,3.70
2023-06-01T20:03:39.864Z,4.40
2023-06-01T20:07:29.232Z,5.10
2023-06-01T20:11:20.002Z,3.90
2023-06-01T20:15:09.553Z,4.00
2023-06-01T20:19:01.938Z,3.90
2023-06-01T20:22:51.368Z,4.70
2023-06-01T20:26:31.734Z,4.00
2023-06-01T20:30:21.012Z,4.00
2023-06-01T20:34:10.274Z,4.10
2023-06-01T20:37:51.076Z,3.80
2023-06-01T20:44:44.038Z,3.50
2023-06-01T20:48:26.043Z,3.20
2023-06-01T20:52:27.400Z,3.60
2023-06-01T20:56:18.994Z,3.40
2023-06-01T21:00:15.807Z,3.20
2023-06-01T21:03:59.390Z,2.90
2023-06-01T21:07:49.003Z,3.50
2023-06-01T21:11:38.234Z,4.40
2023-06-01T21:15:16.509Z,3.50
2023-06-01T21:19:05.837Z,3.40
2023-06-01T21:22:56.882Z,3.40
2023-06-01T21:26:40.615Z,3.50
2023-06-01T21:30:30.070Z,3.70
2023-06-01T21:34:19.479Z,3.80
2023-06-01T21:38:08.678Z,3.60
2023-06-01T21:41:56.856Z,3.00
2023-06-01T21:45:46.322Z,3.40
2023-06-01T21:49:35.695Z,3.50
2023-06-01T21:53:25.049Z,3.30
2023-06-01T21:57:07.814Z,3.60
2023-06-01T22:00:57.248Z,3.20
2023-06-01T22:04:46.477Z,3.10
2023-06-01T22:08:35.393Z,3.60
2023-06-01T22:12:24.555Z,3.60
2023-06-01T22:16:13.899Z,3.10
2023-06-01T22:20:01.814Z,3.40
2023-06-01T22:23:51.244Z,3.30
2023-06-01T22:27:33.120Z,3.60
2023-06-01T22:31:16.190Z,3.10
2023-06-01T22:35:05.720Z,3.30
2023-06-01T22:38:55.067Z,4.00
2023-06-01T22:42:27.095Z,3.80
2023-06-01T22:46:00.479Z,3.10
2023-06-01T22:49:49.594Z,3.40
2023-06-01T22:53:24.830Z,3.20
2023-06-01T22:57:14.029Z,3.60
2023-06-01T23:00:46.670Z,3.40
2023-06-01T23:04:28.595Z,4.10
2023-06-01T23:07:47.948Z,3.60
2023-06-01T23:11:37.146Z,4.30
2023-06-01T23:15:26.457Z,3.90
2023-06-01T23:19:15.256Z,3.60
2023-06-01T23:23:04.533Z,4.20
2023-06-01T23:26:44.046Z,4.00
2023-06-01T23:30:33.372Z,4.10
2023-06-01T23:34:15.603Z,3.90
2023-06-01T23:37:47.314Z,4.40
2023-06-01T23:41:36.914Z,4.10
2023-06-01T23:45:26.386Z,4.10
2023-06-01T23:49:05.432Z,4.10
2023-06-01T23:52:34.592Z,4.10
2023-06-01T23:56:16.973Z,4.70
